Terminal Aerodrome Forecast
Issued by NWS

Home | Current Version | Previous Version | Text Only | Print | Product List | Glossary On
Versions: 1 2 3 4 5 6 7 8 9 10 11 12 13 14 15 16 17 18 19 20 21 22 23 24 25 26 27 28 29 30 31 32 33 34 35 36 37 38 39 40 41 42 43
363
FTUS45 KSLC 091735
TAFLGU
TAF
KLGU 091735Z 0918/1018 VRB03KT 2SM BR BKN005
     FM092000 VRB04KT 4SM BR SCT005
     FM100300 00000KT 1SM BR BCFG BKN005
     FM100500 00000KT 1/4SM FZFG VV001=

USA.gov is the U.S. government's official web portal to all federal, state and local government web resources and services.